Time;durP1;ratioP1;P1;durP2;ratioP2;P2;SDS_P1;SDS_P2;PMS_P1;PMS_P2;Temp;Humidity;BMP_temperature;BMP_pressure;BME280_temperature;BME280_humidity;BME280_pressure;Samples;Min_cycle;Max_cycle;Signal;HPM_P1;HPM_P2
2024/02/29 00:02:36;;;;;;;6.20;1.80;;;11.50;99.90;;;;;;6236109;28;20049;-90
2024/02/29 00:05:39;;;;;;;4.78;1.90;;;11.50;99.90;;;;;;6236280;28;20056;-93
2024/02/29 00:08:40;;;;;;;5.30;1.90;;;11.50;99.90;;;;;;6253614;28;20049;-93
2024/02/29 00:11:42;;;;;;;5.25;1.98;;;11.50;99.90;;;;;;6260028;28;20045;-94
2024/02/29 00:14:44;;;;;;;5.82;1.70;;;11.50;99.90;;;;;;6248320;28;20056;-94
2024/02/29 00:17:46;;;;;;;4.28;1.65;;;11.50;99.90;;;;;;6260161;28;20131;-93
2024/02/29 00:20:47;;;;;;;7.65;1.92;;;11.50;99.90;;;;;;6242770;28;20061;-94
2024/02/29 00:23:49;;;;;;;4.32;1.63;;;11.50;99.90;;;;;;6240878;28;20509;-92
2024/02/29 00:26:51;;;;;;;4.38;1.50;;;11.50;99.90;;;;;;6255282;28;20057;-91
2024/02/29 00:29:52;;;;;;;4.60;1.25;;;11.60;99.90;;;;;;6235551;28;20054;-94
2024/02/29 00:32:55;;;;;;;7.57;1.85;;;11.50;99.90;;;;;;6240322;28;20049;-94
2024/02/29 00:35:58;;;;;;;4.22;1.35;;;11.50;99.90;;;;;;6257073;28;20064;-94
2024/02/29 00:39:10;;;;;;;5.53;1.60;;;11.50;99.90;;;;;;6245440;28;20046;-92
2024/02/29 00:42:16;;;;;;;4.70;1.48;;;11.50;99.90;;;;;;6212980;28;20061;-94
2024/02/29 00:45:18;;;;;;;5.72;1.35;;;11.50;99.90;;;;;;6227129;28;20484;-94
2024/02/29 00:48:19;;;;;;;5.15;1.27;;;11.50;99.90;;;;;;6235546;28;20064;-90
2024/02/29 00:51:21;;;;;;;6.88;1.65;;;11.40;99.90;;;;;;6253329;28;20064;-89
2024/02/29 00:54:24;;;;;;;6.10;1.60;;;11.40;99.90;;;;;;6235124;28;20052;-90
2024/02/29 00:57:26;;;;;;;6.72;1.40;;;11.40;99.90;;;;;;6252096;28;20056;-93
2024/02/29 01:00:28;;;;;;;5.25;1.50;;;11.40;99.90;;;;;;6220745;28;20049;-93
2024/02/29 01:03:30;;;;;;;5.10;1.33;;;11.40;99.90;;;;;;6237025;28;20061;-93
2024/02/29 01:06:35;;;;;;;6.00;1.40;;;11.40;99.90;;;;;;6236831;28;20510;-94
2024/02/29 01:09:37;;;;;;;6.80;1.38;;;11.30;99.90;;;;;;6230302;28;20061;-91
2024/02/29 01:12:39;;;;;;;4.78;1.27;;;11.40;99.90;;;;;;6254155;28;20091;-93
2024/02/29 01:15:41;;;;;;;4.75;1.08;;;11.40;99.90;;;;;;6235367;28;20139;-93
2024/02/29 01:18:43;;;;;;;5.97;1.20;;;11.40;99.90;;;;;;6213194;28;20057;-94
2024/02/29 01:21:44;;;;;;;4.70;1.35;;;11.40;99.90;;;;;;6250065;28;20346;-94
2024/02/29 01:24:46;;;;;;;8.57;1.45;;;11.40;99.90;;;;;;6254893;28;20053;-94
2024/02/29 01:27:50;;;;;;;5.78;1.02;;;11.30;99.90;;;;;;6240130;28;20092;-94
2024/02/29 01:30:51;;;;;;;4.80;1.20;;;11.50;99.90;;;;;;6238944;28;20052;-94
2024/02/29 01:33:53;;;;;;;7.78;1.38;;;11.30;99.90;;;;;;6205031;28;20414;-95
2024/02/29 01:36:55;;;;;;;4.90;1.17;;;11.40;99.90;;;;;;6243554;28;20061;-94
2024/02/29 01:39:57;;;;;;;4.35;1.15;;;11.30;99.90;;;;;;6242569;28;20049;-94
2024/02/29 01:42:59;;;;;;;5.85;1.10;;;11.50;99.90;;;;;;6244312;28;20129;-91
2024/02/29 01:46:01;;;;;;;4.38;1.30;;;11.30;99.90;;;;;;6240881;28;20508;-93
2024/02/29 01:49:03;;;;;;;6.90;1.20;;;11.40;99.90;;;;;;6235811;28;20053;-95
2024/02/29 01:52:04;;;;;;;4.20;1.02;;;11.30;99.90;;;;;;6234900;28;20084;-93
2024/02/29 01:55:06;;;;;;;4.88;0.95;;;11.40;99.90;;;;;;6254501;28;20109;-93
2024/02/29 01:58:08;;;;;;;4.90;0.98;;;11.40;99.90;;;;;;6230500;28;20042;-93
2024/02/29 02:01:13;;;;;;;4.25;0.93;;;11.40;99.90;;;;;;6244341;28;20049;-94
2024/02/29 02:04:16;;;;;;;6.82;1.10;;;11.40;99.90;;;;;;6230134;28;20053;-94
2024/02/29 02:07:18;;;;;;;5.20;1.10;;;11.90;99.90;;;;;;6215308;28;20054;-95
2024/02/29 02:10:19;;;;;;;4.53;0.82;;;11.40;99.90;;;;;;6233180;28;20056;-93
2024/02/29 02:13:22;;;;;;;5.97;1.40;;;11.40;99.90;;;;;;6229280;28;20054;-94
2024/02/29 02:16:24;;;;;;;6.00;1.23;;;11.30;99.90;;;;;;6222715;28;20515;-93
2024/02/29 02:19:25;;;;;;;7.18;1.45;;;11.40;99.90;;;;;;6237240;28;20480;-95
2024/02/29 02:22:28;;;;;;;6.03;1.10;;;11.30;99.90;;;;;;6244744;28;20115;-93
2024/02/29 02:25:30;;;;;;;5.60;1.10;;;11.30;99.90;;;;;;6233973;28;20057;-95
2024/02/29 02:28:32;;;;;;;10.38;1.20;;;11.20;99.90;;;;;;6230044;28;20493;-81
2024/02/29 02:31:36;;;;;;;6.22;1.05;;;11.20;99.90;;;;;;6234728;28;20046;-92
2024/02/29 02:34:38;;;;;;;6.72;1.13;;;11.20;99.90;;;;;;6234648;28;20064;-94
2024/02/29 02:37:40;;;;;;;4.72;1.00;;;11.20;99.90;;;;;;6249229;28;20056;-94
2024/02/29 02:40:42;;;;;;;6.15;0.90;;;11.10;99.90;;;;;;6272103;28;20076;-95
2024/02/29 02:43:48;;;;;;;5.72;1.20;;;11.10;99.90;;;;;;6276743;28;20059;-93
2024/02/29 02:46:50;;;;;;;6.25;1.25;;;11.10;99.90;;;;;;6252691;28;20140;-92
2024/02/29 02:49:52;;;;;;;3.10;0.82;;;11.10;99.90;;;;;;6263606;28;20056;-95
2024/02/29 02:52:54;;;;;;;6.30;0.93;;;11.00;99.90;;;;;;6278899;28;20056;-91
2024/02/29 02:55:55;;;;;;;4.72;0.95;;;11.50;99.90;;;;;;6257396;28;20049;-93
2024/02/29 02:58:57;;;;;;;5.43;1.00;;;11.00;99.90;;;;;;6273721;28;20295;-93
2024/02/29 03:01:58;;;;;;;4.70;1.10;;;11.10;99.90;;;;;;6263223;28;20055;-92
2024/02/29 03:05:00;;;;;;;4.38;0.95;;;10.80;99.90;;;;;;6282001;28;20475;-92
2024/02/29 03:08:04;;;;;;;6.85;1.35;;;11.20;99.90;;;;;;6282242;28;20053;-95
2024/02/29 03:11:06;;;;;;;9.23;1.58;;;10.80;99.90;;;;;;6259003;28;20058;-91
2024/02/29 03:14:08;;;;;;;7.22;1.13;;;10.90;99.90;;;;;;6260955;28;20055;-93
2024/02/29 03:17:09;;;;;;;6.53;1.23;;;10.80;99.90;;;;;;6262109;28;20045;-90
2024/02/29 03:20:14;;;;;;;8.63;1.50;;;11.20;99.90;;;;;;6266231;28;20045;-94
2024/02/29 03:23:17;;;;;;;8.05;1.38;;;10.80;99.90;;;;;;6281159;28;20501;-94
2024/02/29 03:26:19;;;;;;;8.00;1.33;;;10.80;99.90;;;;;;6264070;28;20080;-94
2024/02/29 03:29:21;;;;;;;6.60;1.70;;;10.80;99.90;;;;;;6263982;28;20053;-95
2024/02/29 03:32:22;;;;;;;9.82;1.50;;;10.90;99.90;;;;;;6261821;28;20056;-93
2024/02/29 03:35:24;;;;;;;4.13;1.08;;;10.90;99.90;;;;;;6259998;28;20597;-94
2024/02/29 03:38:30;;;;;;;7.05;1.40;;;10.90;99.90;;;;;;6241230;28;20057;-94
2024/02/29 03:41:32;;;;;;;9.35;1.80;;;10.90;99.90;;;;;;6260000;28;20049;-91
2024/02/29 03:44:34;;;;;;;5.40;1.00;;;10.90;99.90;;;;;;6223445;28;20054;-93
2024/02/29 03:47:36;;;;;;;6.10;1.38;;;10.90;99.90;;;;;;6245480;28;20053;-93
2024/02/29 03:50:42;;;;;;;8.27;1.40;;;11.00;99.90;;;;;;6246305;28;20060;-95
2024/02/29 03:53:45;;;;;;;9.40;1.73;;;11.00;99.90;;;;;;6266007;28;20045;-95
2024/02/29 03:57:07;;;;;;;8.40;1.50;;;11.00;99.90;;;;;;6252945;28;20061;-95
2024/02/29 04:00:28;;;;;;;7.80;1.40;;;11.00;99.90;;;;;;6217024;28;20052;-95
2024/02/29 04:03:30;;;;;;;9.48;1.75;;;11.00;99.90;;;;;;6260902;28;20053;-93
2024/02/29 04:06:31;;;;;;;9.98;1.77;;;11.00;99.90;;;;;;6261438;28;20045;-94
2024/02/29 04:09:33;;;;;;;8.55;1.58;;;11.10;99.90;;;;;;6260598;28;20057;-94
2024/02/29 04:12:35;;;;;;;8.02;1.40;;;11.00;99.90;;;;;;6265802;28;20079;-94
2024/02/29 04:15:37;;;;;;;7.35;1.40;;;11.40;99.90;;;;;;6247020;28;20049;-94
2024/02/29 04:18:39;;;;;;;10.35;1.55;;;11.00;99.90;;;;;;6258998;28;20467;-94
2024/02/29 04:21:40;;;;;;;7.97;1.40;;;11.00;99.90;;;;;;6255746;28;20049;-92
2024/02/29 04:24:42;;;;;;;7.55;1.50;;;11.00;99.90;;;;;;6245220;28;20045;-95
2024/02/29 04:27:44;;;;;;;7.30;1.50;;;10.90;99.90;;;;;;6241774;28;20551;-83
2024/02/29 04:30:46;;;;;;;9.40;1.23;;;10.50;99.90;;;;;;6231023;28;20136;-93
2024/02/29 04:33:48;;;;;;;7.15;1.35;;;10.90;99.90;;;;;;6230406;28;20535;-94
2024/02/29 04:36:52;;;;;;;6.40;1.60;;;10.70;99.90;;;;;;6253095;28;20065;-93
2024/02/29 04:39:54;;;;;;;8.65;1.35;;;11.30;99.90;;;;;;6228745;28;20489;-93
2024/02/29 04:42:56;;;;;;;9.90;1.40;;;10.80;99.90;;;;;;6251175;28;20087;-92
2024/02/29 04:45:59;;;;;;;9.40;1.67;;;11.00;99.90;;;;;;6226686;28;20053;-92
2024/02/29 04:49:01;;;;;;;11.30;1.60;;;10.70;99.90;;;;;;6212582;28;20401;-92
2024/02/29 04:52:03;;;;;;;11.38;1.70;;;11.00;99.90;;;;;;6254331;28;20057;-95
2024/02/29 04:55:04;;;;;;;11.60;1.75;;;10.70;99.90;;;;;;6262190;28;20132;-95
2024/02/29 04:58:06;;;;;;;12.55;1.90;;;10.70;99.90;;;;;;6246170;28;20060;-94
2024/02/29 05:01:10;;;;;;;12.35;1.70;;;10.60;99.90;;;;;;6242834;28;20060;-94
2024/02/29 05:04:12;;;;;;;10.27;1.65;;;10.60;99.90;;;;;;6231703;28;20104;-93
2024/02/29 05:07:14;;;;;;;9.98;1.50;;;10.60;99.90;;;;;;6264616;28;20054;-96
2024/02/29 05:10:16;;;;;;;9.77;1.65;;;10.60;99.90;;;;;;6250194;28;20050;-94
2024/02/29 05:13:18;;;;;;;8.10;1.63;;;10.50;99.90;;;;;;6245963;28;20045;-93
2024/02/29 05:16:20;;;;;;;8.85;1.50;;;10.60;99.90;;;;;;6240488;28;20105;-95
2024/02/29 05:19:22;;;;;;;9.50;1.80;;;10.50;99.90;;;;;;6251871;28;20049;-92
2024/02/29 05:22:24;;;;;;;7.03;1.70;;;10.60;99.90;;;;;;6354792;22;20523;-96
2024/02/29 05:25:28;;;;;;;9.43;1.63;;;10.50;99.90;;;;;;6269454;28;20042;-93
2024/02/29 05:28:30;;;;;;;9.40;1.67;;;10.50;99.90;;;;;;6230964;28;20069;-81
2024/02/29 05:31:36;;;;;;;7.78;1.67;;;10.60;99.90;;;;;;6257850;28;20053;-94
2024/02/29 05:34:37;;;;;;;6.05;1.35;;;10.90;99.90;;;;;;6264728;28;20072;-92
2024/02/29 05:37:39;;;;;;;8.02;1.65;;;10.50;99.90;;;;;;6248347;28;20059;-90
2024/02/29 05:40:41;;;;;;;9.07;1.50;;;10.70;99.90;;;;;;6250886;28;20137;-94
2024/02/29 05:43:43;;;;;;;8.23;1.55;;;10.60;99.90;;;;;;6241746;28;20136;-92
2024/02/29 05:46:44;;;;;;;9.23;1.73;;;10.70;99.90;;;;;;6232458;28;20045;-94
2024/02/29 05:49:46;;;;;;;5.72;1.30;;;10.70;99.90;;;;;;6232396;28;20046;-94
2024/02/29 05:52:48;;;;;;;9.50;1.67;;;10.60;99.90;;;;;;6230966;28;20437;-92
2024/02/29 05:55:50;;;;;;;11.60;2.22;;;10.60;99.90;;;;;;6240248;28;20045;-91
2024/02/29 05:58:52;;;;;;;8.93;1.60;;;10.60;99.90;;;;;;6220376;28;20198;-93
2024/02/29 06:01:54;;;;;;;10.85;1.98;;;10.60;99.90;;;;;;6227524;28;20046;-93
2024/02/29 06:04:58;;;;;;;14.43;2.08;;;10.60;99.90;;;;;;6211669;28;20120;-92
2024/02/29 06:08:00;;;;;;;10.93;1.75;;;10.60;99.90;;;;;;6249985;28;20049;-93
2024/02/29 06:11:01;;;;;;;13.70;2.30;;;10.70;99.90;;;;;;6232490;28;20046;-93
2024/02/29 06:14:03;;;;;;;11.52;2.15;;;10.60;99.90;;;;;;6231002;28;20054;-92
2024/02/29 06:17:04;;;;;;;14.48;2.25;;;10.80;99.90;;;;;;6231975;28;20049;-93
2024/02/29 06:20:11;;;;;;;14.57;2.10;;;10.70;99.90;;;;;;6236437;28;20416;-94
2024/02/29 06:23:13;;;;;;;13.95;2.72;;;10.70;99.90;;;;;;6272597;28;20049;-94
2024/02/29 06:26:15;;;;;;;9.85;1.75;;;10.70;99.90;;;;;;6279653;28;20045;-94
2024/02/29 06:29:17;;;;;;;9.27;1.92;;;10.80;99.90;;;;;;6291305;28;20052;-94
2024/02/29 06:32:18;;;;;;;12.18;2.03;;;10.70;99.90;;;;;;6274170;28;20143;-90
2024/02/29 06:35:20;;;;;;;11.85;1.90;;;10.70;99.90;;;;;;6283852;28;20067;-91
2024/02/29 06:38:22;;;;;;;10.15;1.80;;;10.70;99.90;;;;;;6274839;28;20049;-92
2024/02/29 06:41:24;;;;;;;9.77;1.70;;;10.60;99.90;;;;;;6257335;28;20052;-89
2024/02/29 06:44:25;;;;;;;13.90;2.03;;;10.50;99.90;;;;;;6269030;28;20052;-91
2024/02/29 06:47:27;;;;;;;11.23;1.75;;;10.50;99.90;;;;;;6274253;28;20068;-90
2024/02/29 06:50:29;;;;;;;9.32;1.67;;;10.40;99.90;;;;;;6232532;28;20539;-89
2024/02/29 06:53:30;;;;;;;8.55;1.70;;;10.50;99.90;;;;;;6271939;28;20055;-92
2024/02/29 06:56:32;;;;;;;6.18;1.52;;;10.40;99.90;;;;;;6274061;28;20049;-92
2024/02/29 06:59:34;;;;;;;9.18;1.45;;;10.40;99.90;;;;;;6269284;28;20060;-91
2024/02/29 07:02:37;;;;;;;8.20;1.40;;;10.40;99.90;;;;;;6259395;28;20049;-92
2024/02/29 07:05:38;;;;;;;7.22;1.20;;;10.40;99.90;;;;;;6264063;28;20053;-87
2024/02/29 07:08:40;;;;;;;8.18;1.52;;;10.40;99.90;;;;;;6274939;28;20045;-89
2024/02/29 07:11:42;;;;;;;7.93;1.15;;;10.40;99.90;;;;;;6273482;28;20049;-90
2024/02/29 07:14:43;;;;;;;8.40;1.42;;;10.40;99.90;;;;;;6263711;28;20107;-90
2024/02/29 07:17:45;;;;;;;5.70;1.10;;;10.50;99.90;;;;;;6258842;28;20041;-90
2024/02/29 07:20:47;;;;;;;6.22;1.27;;;10.50;99.90;;;;;;6248127;28;20053;-89
2024/02/29 07:23:49;;;;;;;4.75;0.90;;;10.90;99.90;;;;;;6227988;28;20061;-93
2024/02/29 07:26:53;;;;;;;6.35;1.20;;;10.50;99.90;;;;;;6241701;28;20064;-91
2024/02/29 07:29:54;;;;;;;4.55;1.08;;;10.70;99.90;;;;;;6214001;28;20061;-92
2024/02/29 07:32:57;;;;;;;6.72;1.35;;;10.60;99.90;;;;;;6255260;28;20061;-89
2024/02/29 07:35:59;;;;;;;6.10;1.10;;;10.60;99.90;;;;;;6220886;28;20406;-92
2024/02/29 07:39:01;;;;;;;5.95;1.27;;;10.70;99.90;;;;;;6248413;28;20492;-93
2024/02/29 07:42:03;;;;;;;3.92;1.00;;;10.80;99.90;;;;;;6232401;28;20168;-95
2024/02/29 07:45:05;;;;;;;5.30;1.20;;;10.80;99.90;;;;;;6239579;28;20064;-93
2024/02/29 07:48:07;;;;;;;6.30;1.50;;;10.80;99.90;;;;;;6229762;28;20058;-90
2024/02/29 07:51:09;;;;;;;6.35;1.48;;;10.80;99.90;;;;;;6254203;28;20416;-91
2024/02/29 07:54:11;;;;;;;7.35;1.40;;;11.00;99.90;;;;;;6236740;28;20054;-92
2024/02/29 07:57:12;;;;;;;4.40;1.20;;;10.90;99.90;;;;;;6251986;28;20499;-91
2024/02/29 08:00:15;;;;;;;5.20;1.23;;;11.00;99.90;;;;;;6228633;28;20085;-93
2024/02/29 08:03:17;;;;;;;4.25;1.00;;;11.00;99.90;;;;;;6233230;28;20061;-91
2024/02/29 08:06:19;;;;;;;5.90;1.20;;;11.10;99.90;;;;;;6229834;28;20041;-93
2024/02/29 08:09:20;;;;;;;5.68;1.38;;;11.10;99.90;;;;;;6238233;28;20057;-94
2024/02/29 08:12:22;;;;;;;5.43;1.58;;;11.20;99.90;;;;;;6247749;28;20049;-92
2024/02/29 08:15:24;;;;;;;4.28;1.20;;;11.10;99.90;;;;;;6218358;28;20053;-93
2024/02/29 08:18:26;;;;;;;5.18;1.10;;;11.10;99.90;;;;;;6244446;28;20180;-94
2024/02/29 08:21:28;;;;;;;4.10;1.08;;;11.10;99.90;;;;;;6252723;28;20060;-94
2024/02/29 08:24:30;;;;;;;4.18;0.95;;;11.20;99.90;;;;;;6267687;28;20041;-93
2024/02/29 08:27:32;;;;;;;4.93;1.17;;;11.10;99.90;;;;;;6268453;28;20571;-91
2024/02/29 08:30:33;;;;;;;4.05;1.00;;;11.30;99.90;;;;;;6267371;28;20099;-87
2024/02/29 08:33:35;;;;;;;4.88;1.02;;;11.20;99.90;;;;;;6266847;28;20103;-87
2024/02/29 08:36:37;;;;;;;3.63;0.90;;;11.30;99.90;;;;;;6258348;28;20124;-84
2024/02/29 08:39:41;;;;;;;5.25;1.10;;;11.40;99.90;;;;;;6264999;28;20053;-83
2024/02/29 08:42:43;;;;;;;6.55;1.40;;;11.50;99.90;;;;;;6260020;28;20150;-93
2024/02/29 08:45:45;;;;;;;5.85;1.20;;;11.60;99.90;;;;;;6256990;28;20060;-85
2024/02/29 08:48:46;;;;;;;5.97;1.35;;;11.60;99.90;;;;;;6269433;28;20055;-88
2024/02/29 08:51:48;;;;;;;4.80;1.05;;;11.70;99.90;;;;;;6280363;28;20071;-92
2024/02/29 08:54:50;;;;;;;6.00;1.27;;;11.60;99.90;;;;;;6272511;28;20523;-90
2024/02/29 08:57:53;;;;;;;4.75;1.00;;;11.50;99.90;;;;;;6250582;28;20163;-80
2024/02/29 09:00:54;;;;;;;5.32;1.05;;;11.40;99.90;;;;;;6263453;28;20424;-83
2024/02/29 09:03:59;;;;;;;4.93;0.98;;;11.30;99.90;;;;;;6271716;28;20490;-83
2024/02/29 09:07:02;;;;;;;4.90;0.82;;;11.40;99.90;;;;;;6268938;28;20051;-81
2024/02/29 09:10:04;;;;;;;2.17;0.73;;;11.40;99.90;;;;;;6264516;28;20057;-88
2024/02/29 09:13:06;;;;;;;1.92;0.60;;;11.50;99.90;;;;;;6255433;28;20815;-87
2024/02/29 09:16:27;;;;;;;4.35;0.77;;;11.50;99.90;;;;;;6234362;28;20053;-85
2024/02/29 09:19:29;;;;;;;3.65;0.80;;;11.50;99.90;;;;;;6252836;28;20487;-84
2024/02/29 09:22:30;;;;;;;3.45;0.88;;;11.40;99.90;;;;;;6252210;28;20116;-86
2024/02/29 09:25:32;;;;;;;3.00;0.70;;;11.40;99.90;;;;;;6251875;28;20492;-86
2024/02/29 09:28:35;;;;;;;4.10;0.82;;;11.30;99.90;;;;;;6233707;28;20404;-86
2024/02/29 09:31:37;;;;;;;2.90;0.80;;;11.30;99.90;;;;;;6252591;28;20053;-85
2024/02/29 09:34:38;;;;;;;3.20;0.95;;;11.20;99.90;;;;;;6270837;28;20053;-87
2024/02/29 09:37:46;;;;;;;2.42;0.60;;;11.30;99.90;;;;;;6229305;28;20566;-86
2024/02/29 09:40:48;;;;;;;4.25;0.80;;;11.10;99.90;;;;;;6253432;28;20060;-86
2024/02/29 09:44:00;;;;;;;3.30;0.90;;;11.10;99.90;;;;;;6228271;28;20497;-87
2024/02/29 09:47:01;;;;;;;3.92;1.00;;;11.10;99.90;;;;;;6252920;28;20063;-87
2024/02/29 09:50:03;;;;;;;4.65;1.23;;;11.10;99.90;;;;;;6253130;28;20056;-86
2024/02/29 09:53:06;;;;;;;3.63;0.88;;;11.20;99.90;;;;;;6270825;28;20048;-83
2024/02/29 09:56:08;;;;;;;7.45;1.00;;;11.20;99.90;;;;;;6251692;28;20063;-83
2024/02/29 09:59:10;;;;;;;4.28;1.38;;;11.20;99.90;;;;;;6232993;28;20049;-86
2024/02/29 10:02:12;;;;;;;2.97;0.80;;;11.20;99.90;;;;;;6269013;28;20049;-85
2024/02/29 10:05:13;;;;;;;1.58;0.50;;;11.30;99.90;;;;;;6250594;28;20808;-91
2024/02/29 10:08:15;;;;;;;3.78;0.90;;;11.40;99.90;;;;;;6269857;28;20052;-92
2024/02/29 10:11:17;;;;;;;1.92;0.70;;;11.30;99.90;;;;;;6250612;28;20103;-86
2024/02/29 10:14:19;;;;;;;3.33;0.85;;;11.40;99.90;;;;;;6249550;28;20053;-81
2024/02/29 10:17:20;;;;;;;4.15;0.90;;;11.30;99.90;;;;;;6265872;28;20056;-82
2024/02/29 10:20:22;;;;;;;2.67;0.75;;;11.30;99.90;;;;;;6255066;28;20052;-91
2024/02/29 10:23:26;;;;;;;1.90;0.70;;;11.30;99.90;;;;;;6259589;28;20613;-93
2024/02/29 10:26:28;;;;;;;2.65;0.70;;;11.30;99.90;;;;;;6255011;28;20080;-89
2024/02/29 10:29:29;;;;;;;1.67;0.60;;;11.30;99.90;;;;;;6234324;28;20069;-91
2024/02/29 10:32:32;;;;;;;4.55;0.88;;;11.40;99.90;;;;;;6270840;28;20057;-88
2024/02/29 10:35:34;;;;;;;2.67;0.77;;;11.40;99.90;;;;;;6249694;28;20052;-91
2024/02/29 10:38:37;;;;;;;3.67;0.73;;;11.40;99.90;;;;;;6264281;28;20048;-89
2024/02/29 10:41:38;;;;;;;3.03;0.70;;;11.40;99.90;;;;;;6265137;28;20053;-88
2024/02/29 10:44:40;;;;;;;3.92;0.85;;;11.30;99.90;;;;;;6241454;28;20056;-87
2024/02/29 10:47:43;;;;;;;3.30;0.80;;;11.40;99.90;;;;;;6256728;28;20543;-90
2024/02/29 10:50:45;;;;;;;3.70;0.80;;;11.50;99.90;;;;;;6266428;28;20407;-89
2024/02/29 10:53:53;;;;;;;3.55;0.70;;;11.60;99.90;;;;;;6270144;28;20036;-95
2024/02/29 10:56:57;;;;;;;2.80;0.90;;;11.60;99.90;;;;;;6268071;28;20053;-90
2024/02/29 10:59:59;;;;;;;2.83;0.70;;;11.80;99.90;;;;;;6250543;28;20072;-92
2024/02/29 11:03:00;;;;;;;3.83;0.57;;;11.90;99.90;;;;;;6268074;28;20092;-84
2024/02/29 11:06:03;;;;;;;2.20;0.70;;;12.10;99.90;;;;;;6267512;28;20638;-87
2024/02/29 11:09:04;;;;;;;1.23;0.50;;;12.10;99.90;;;;;;6270536;28;20041;-90
2024/02/29 11:12:08;;;;;;;1.48;0.60;;;12.00;99.90;;;;;;6266816;28;20056;-91
2024/02/29 11:15:09;;;;;;;2.40;0.47;;;12.10;99.90;;;;;;6250251;28;20492;-87
2024/02/29 11:18:11;;;;;;;3.50;0.50;;;12.00;99.90;;;;;;6257042;28;20052;-93
2024/02/29 11:21:13;;;;;;;1.38;0.52;;;12.00;99.90;;;;;;6264044;28;20130;-88
2024/02/29 11:24:14;;;;;;;1.73;0.70;;;12.10;99.90;;;;;;6259062;28;20053;-89
2024/02/29 11:27:16;;;;;;;2.35;0.60;;;12.60;99.90;;;;;;6257133;28;20057;-87
2024/02/29 11:30:21;;;;;;;1.08;0.40;;;;;;;;;;6252544;28;20411;-86
2024/02/29 11:33:23;;;;;;;0.95;0.40;;;12.40;99.90;;;;;;6260473;28;20199;-85
2024/02/29 11:36:24;;;;;;;0.57;0.30;;;12.40;99.90;;;;;;6272142;28;20134;-87
2024/02/29 11:39:26;;;;;;;1.02;0.50;;;12.50;99.90;;;;;;6255472;28;20491;-87
2024/02/29 11:42:28;;;;;;;1.05;0.73;;;12.40;99.90;;;;;;6271975;28;20049;-85
2024/02/29 11:45:31;;;;;;;1.05;0.43;;;12.40;99.90;;;;;;6252607;28;20079;-84
2024/02/29 11:48:33;;;;;;;1.40;0.50;;;12.50;99.90;;;;;;6259839;28;20053;-92
2024/02/29 11:51:34;;;;;;;2.58;0.60;;;12.40;99.90;;;;;;6256986;28;20421;-90
2024/02/29 11:54:36;;;;;;;0.70;0.40;;;12.10;99.90;;;;;;6258142;28;20052;-88
2024/02/29 11:57:38;;;;;;;1.80;0.50;;;12.00;99.90;;;;;;6272516;28;20052;-88
2024/02/29 12:00:39;;;;;;;1.38;0.43;;;11.90;99.90;;;;;;6256430;28;20358;-90
2024/02/29 12:03:41;;;;;;;1.85;0.57;;;12.00;99.90;;;;;;6229853;28;20539;-82
2024/02/29 12:06:46;;;;;;;2.25;0.63;;;12.10;99.90;;;;;;6270714;28;20076;-85
2024/02/29 12:09:49;;;;;;;4.18;0.70;;;12.20;99.90;;;;;;6266577;28;20052;-85
2024/02/29 12:12:51;;;;;;;1.77;0.68;;;12.10;99.90;;;;;;6251178;28;20131;-81
2024/02/29 12:15:54;;;;;;;2.75;0.80;;;11.70;99.90;;;;;;6256880;28;20096;-81
2024/02/29 12:18:56;;;;;;;1.35;0.60;;;11.40;99.90;;;;;;6246980;28;20069;-80
2024/02/29 12:21:58;;;;;;;2.13;0.70;;;11.30;99.90;;;;;;6239795;28;20060;-87
2024/02/29 12:25:00;;;;;;;3.33;1.00;;;11.30;99.90;;;;;;6260286;28;20073;-82
2024/02/29 12:28:05;;;;;;;3.58;1.08;;;11.20;99.90;;;;;;6263390;28;20171;-91
2024/02/29 12:31:07;;;;;;;2.20;0.70;;;11.10;99.90;;;;;;6271600;28;20075;-84
2024/02/29 12:34:12;;;;;;;2.20;0.85;;;10.90;99.90;;;;;;6253571;28;20045;-83
2024/02/29 12:37:13;;;;;;;3.08;0.90;;;10.90;99.90;;;;;;6268827;28;20480;-83
2024/02/29 12:40:15;;;;;;;2.85;0.70;;;10.90;99.90;;;;;;6267414;28;20067;-82
2024/02/29 12:43:17;;;;;;;1.80;0.68;;;10.90;99.90;;;;;;6246212;28;20434;-92
2024/02/29 12:46:29;;;;;;;4.47;1.13;;;11.00;99.90;;;;;;6271301;28;20057;-82
2024/02/29 12:49:31;;;;;;;2.92;1.10;;;11.10;99.90;;;;;;6269758;28;20507;-82
2024/02/29 12:52:33;;;;;;;4.03;0.95;;;11.30;99.90;;;;;;6259491;28;20508;-92
2024/02/29 12:55:35;;;;;;;2.42;1.00;;;11.20;99.90;;;;;;6276571;28;20480;-88
2024/02/29 12:58:38;;;;;;;1.85;0.70;;;11.00;99.90;;;;;;6241977;28;20049;-88
2024/02/29 13:01:40;;;;;;;2.17;0.90;;;11.00;99.90;;;;;;6272514;28;20484;-88
2024/02/29 13:04:42;;;;;;;4.32;0.90;;;10.90;99.90;;;;;;6271534;28;20056;-90
2024/02/29 13:07:44;;;;;;;1.48;0.55;;;10.80;99.90;;;;;;6254399;28;20101;-91
2024/02/29 13:10:46;;;;;;;1.40;0.47;;;10.70;99.90;;;;;;6273021;28;20049;-88
2024/02/29 13:13:47;;;;;;;2.33;0.70;;;10.50;99.90;;;;;;6257560;28;20522;-83
2024/02/29 13:16:50;;;;;;;2.35;0.80;;;10.50;99.90;;;;;;6252790;28;20044;-86
2024/02/29 13:19:52;;;;;;;2.17;0.60;;;10.40;99.90;;;;;;6253799;28;20048;-86
2024/02/29 13:22:53;;;;;;;2.30;0.75;;;10.50;99.90;;;;;;6255410;28;20037;-89
2024/02/29 13:25:55;;;;;;;2.15;0.52;;;10.60;99.90;;;;;;6264693;28;20052;-94
2024/02/29 13:28:57;;;;;;;2.90;0.70;;;10.70;99.90;;;;;;6239937;28;20053;-94
2024/02/29 13:31:58;;;;;;;3.30;0.75;;;10.80;99.90;;;;;;6257441;28;20057;-94
2024/02/29 13:35:05;;;;;;;5.30;0.90;;;10.90;99.90;;;;;;6250408;28;20057;-95
2024/02/29 13:38:08;;;;;;;3.03;0.63;;;10.90;99.90;;;;;;6263271;28;20049;-95
2024/02/29 13:41:10;;;;;;;2.63;0.70;;;10.90;99.90;;;;;;6295533;28;20045;-96
2024/02/29 13:44:12;;;;;;;4.05;1.10;;;11.00;99.90;;;;;;6269159;28;20076;-95
2024/02/29 13:47:14;;;;;;;3.78;0.90;;;11.10;99.90;;;;;;6284552;28;20477;-88
2024/02/29 13:50:16;;;;;;;3.30;1.25;;;11.00;99.90;;;;;;6270892;28;20060;-91
2024/02/29 13:53:18;;;;;;;6.15;1.00;;;11.00;99.90;;;;;;6262100;28;20132;-84
2024/02/29 13:56:20;;;;;;;3.25;0.90;;;11.00;99.90;;;;;;6267398;28;20049;-85
2024/02/29 13:59:22;;;;;;;3.38;0.98;;;11.00;99.90;;;;;;6246087;28;20078;-88
2024/02/29 14:02:24;;;;;;;4.30;1.15;;;11.00;99.90;;;;;;6266123;28;20408;-85
2024/02/29 14:05:26;;;;;;;4.25;1.10;;;11.00;99.90;;;;;;6269240;28;20049;-89
2024/02/29 14:08:28;;;;;;;4.80;1.10;;;11.00;99.90;;;;;;6243092;28;20049;-90
2024/02/29 14:11:29;;;;;;;3.75;1.17;;;11.00;99.90;;;;;;6270904;28;20093;-93
2024/02/29 14:14:31;;;;;;;3.35;0.98;;;11.00;99.90;;;;;;6249088;28;20405;-88
2024/02/29 14:17:33;;;;;;;4.10;1.00;;;11.20;99.90;;;;;;6260076;28;20049;-95
2024/02/29 14:20:35;;;;;;;5.10;1.00;;;11.30;99.90;;;;;;6251869;28;20139;-95
2024/02/29 14:23:36;;;;;;;3.10;1.00;;;11.20;99.90;;;;;;6243198;28;20064;-90
2024/02/29 14:26:38;;;;;;;3.70;1.10;;;11.10;99.90;;;;;;6256721;28;20495;-84
2024/02/29 14:29:40;;;;;;;2.58;0.90;;;11.00;99.90;;;;;;6225958;28;20468;-88
2024/02/29 14:32:42;;;;;;;3.85;1.10;;;10.90;99.90;;;;;;6254250;28;20386;-92
2024/02/29 14:35:45;;;;;;;2.83;0.98;;;10.80;99.90;;;;;;6253803;28;20065;-86
2024/02/29 14:38:49;;;;;;;4.57;1.15;;;10.70;99.90;;;;;;6271681;28;20048;-87
2024/02/29 14:41:51;;;;;;;3.72;1.05;;;10.70;99.90;;;;;;6264519;28;20048;-90
2024/02/29 14:44:53;;;;;;;3.30;1.02;;;10.70;99.90;;;;;;6247595;28;20048;-89
2024/02/29 14:47:54;;;;;;;4.72;1.02;;;10.60;99.90;;;;;;6255536;28;20056;-96
2024/02/29 14:50:56;;;;;;;5.57;1.52;;;10.60;99.90;;;;;;6260123;28;20053;-93
2024/02/29 14:53:59;;;;;;;5.05;1.45;;;10.50;99.90;;;;;;6277135;28;20037;-94
2024/02/29 15:00:14;;;;;;;3.85;1.00;;;10.30;99.90;;;;;;6306322;22;20145;-93
2024/02/29 15:03:17;;;;;;;2.60;0.93;;;10.10;99.90;;;;;;6276198;28;20029;-92
2024/02/29 15:06:18;;;;;;;3.15;0.90;;;9.90;99.90;;;;;;6258089;28;20055;-91
2024/02/29 15:09:20;;;;;;;6.10;1.00;;;9.70;99.90;;;;;;6258896;28;20037;-90
2024/02/29 15:12:22;;;;;;;6.70;1.10;;;9.70;99.90;;;;;;6236343;28;20053;-86
2024/02/29 15:15:26;;;;;;;4.93;1.00;;;9.50;99.90;;;;;;6216913;28;20057;-91
2024/02/29 15:18:27;;;;;;;3.75;1.20;;;9.50;99.90;;;;;;6244810;28;20079;-87
2024/02/29 15:21:29;;;;;;;5.15;0.93;;;9.50;99.90;;;;;;6249766;28;20072;-92
2024/02/29 15:24:31;;;;;;;6.28;1.27;;;9.50;99.90;;;;;;6260940;28;20057;-92
2024/02/29 15:27:38;;;;;;;5.45;1.40;;;9.40;99.90;;;;;;6234191;28;20060;-93
2024/02/29 15:30:40;;;;;;;3.25;1.13;;;9.50;99.90;;;;;;6236170;28;20111;-92
2024/02/29 15:33:42;;;;;;;4.28;1.40;;;9.50;99.90;;;;;;6230280;28;20383;-93
2024/02/29 15:36:44;;;;;;;5.47;1.65;;;9.50;99.90;;;;;;6255993;28;20061;-93
2024/02/29 15:39:46;;;;;;;8.32;1.58;;;9.50;99.90;;;;;;6233495;28;20184;-90
2024/02/29 15:42:48;;;;;;;6.78;1.90;;;9.50;99.90;;;;;;6223869;28;20058;-88
2024/02/29 15:46:08;;;;;;;7.70;2.40;;;9.40;99.90;;;;;;6240895;28;20482;-89
2024/02/29 15:49:10;;;;;;;9.77;2.15;;;9.20;99.90;;;;;;6235608;28;20396;-90
2024/02/29 15:52:11;;;;;;;9.43;2.05;;;9.10;99.90;;;;;;6264131;28;20057;-90
2024/02/29 15:55:13;;;;;;;9.75;2.00;;;9.10;99.90;;;;;;6254731;28;20163;-92